createdAt,value
2023-05-11T00:02:03.319Z,4.67
2023-05-11T00:04:31.636Z,3.90
2023-05-11T00:07:01.367Z,4.47
2023-05-11T00:09:30.025Z,3.83
2023-05-11T00:11:58.400Z,4.80
2023-05-11T00:14:26.835Z,4.90
2023-05-11T00:16:55.054Z,4.87
2023-05-11T00:19:23.266Z,5.13
2023-05-11T00:21:51.538Z,4.53
2023-05-11T00:24:21.082Z,4.00
2023-05-11T00:26:49.252Z,4.70
2023-05-11T00:29:17.395Z,4.33
2023-05-11T00:31:47.978Z,6.10
2023-05-11T00:34:16.913Z,4.97
2023-05-11T00:36:45.849Z,5.30
2023-05-11T00:39:14.503Z,5.00
2023-05-11T00:41:44.028Z,4.03
2023-05-11T00:44:12.841Z,4.40
2023-05-11T00:46:41.953Z,5.27
2023-05-11T00:49:10.967Z,4.73
2023-05-11T00:51:39.431Z,4.40
2023-05-11T00:54:13.077Z,4.50
2023-05-11T00:56:41.838Z,4.20
2023-05-11T00:59:11.751Z,4.70
2023-05-11T01:01:40.601Z,4.87
2023-05-11T01:04:09.124Z,5.37
2023-05-11T01:06:46.645Z,5.00
2023-05-11T01:09:25.354Z,4.40
2023-05-11T01:12:01.345Z,4.80
2023-05-11T01:14:39.156Z,4.40
2023-05-11T01:17:12.952Z,4.20
2023-05-11T01:19:45.651Z,5.80
2023-05-11T01:22:29.586Z,4.80
2023-05-11T01:25:11.719Z,4.63
2023-05-11T01:28:07.501Z,5.53
2023-05-11T01:30:43.581Z,5.60
2023-05-11T01:33:14.206Z,5.10
2023-05-11T01:35:46.771Z,5.37
2023-05-11T01:38:20.113Z,5.17
2023-05-11T01:40:55.738Z,4.90
2023-05-11T01:43:27.088Z,5.13
2023-05-11T01:46:01.396Z,5.47
2023-05-11T01:48:34.659Z,5.43
2023-05-11T01:51:04.731Z,5.30
2023-05-11T01:53:38.047Z,6.00
2023-05-11T01:56:07.910Z,5.03
2023-05-11T01:58:38.150Z,5.83
2023-05-11T02:01:09.609Z,5.70
2023-05-11T02:03:38.963Z,5.17
2023-05-11T02:06:09.160Z,5.67
2023-05-11T02:08:39.465Z,6.00
2023-05-11T02:11:09.233Z,7.00
2023-05-11T02:13:42.747Z,5.63
2023-05-11T02:16:13.795Z,6.53
2023-05-11T02:18:43.618Z,6.23
2023-05-11T02:21:13.464Z,5.43
2023-05-11T02:23:43.965Z,5.63
2023-05-11T02:26:15.773Z,5.90
2023-05-11T02:28:44.681Z,5.83
2023-05-11T02:31:18.626Z,6.03
2023-05-11T02:33:52.480Z,6.40
2023-05-11T02:36:23.593Z,5.73
2023-05-11T02:39:03.150Z,5.53
2023-05-11T02:41:32.889Z,6.60
2023-05-11T02:44:05.070Z,5.70
2023-05-11T02:46:39.454Z,6.40
2023-05-11T02:49:11.260Z,6.63
2023-05-11T02:51:44.547Z,7.23
2023-05-11T02:54:14.106Z,6.40
2023-05-11T02:56:47.904Z,6.20
2023-05-11T02:59:16.614Z,6.30
2023-05-11T03:01:46.665Z,6.80
2023-05-11T03:04:15.279Z,6.77
2023-05-11T03:06:43.498Z,6.90
2023-05-11T03:09:12.160Z,6.47
2023-05-11T03:11:45.872Z,6.87
2023-05-11T03:14:14.667Z,7.10
2023-05-11T03:16:45.054Z,7.30
2023-05-11T03:19:16.289Z,6.47
2023-05-11T03:21:44.783Z,7.20
2023-05-11T03:24:13.529Z,6.90
2023-05-11T03:26:44.453Z,6.40
2023-05-11T03:29:14.328Z,6.10
2023-05-11T03:31:42.657Z,6.40
2023-05-11T03:34:10.872Z,7.13
2023-05-11T03:36:46.196Z,7.20
2023-05-11T03:39:17.132Z,6.30
2023-05-11T03:41:49.788Z,7.43
2023-05-11T03:44:20.711Z,6.60
2023-05-11T03:46:51.215Z,6.50
2023-05-11T03:49:21.179Z,7.33
2023-05-11T03:51:51.454Z,6.20
2023-05-11T03:54:20.345Z,7.80
2023-05-11T03:56:48.531Z,7.00
2023-05-11T03:59:17.206Z,6.67
2023-05-11T04:01:45.985Z,7.17
2023-05-11T04:04:14.454Z,6.70
2023-05-11T04:06:42.654Z,7.23
2023-05-11T04:09:21.658Z,6.40
2023-05-11T04:11:49.854Z,6.70
2023-05-11T04:14:18.486Z,7.10
2023-05-11T04:16:46.617Z,6.90
2023-05-11T04:19:16.361Z,6.90
2023-05-11T04:21:44.769Z,6.70
2023-05-11T04:24:13.311Z,6.93
2023-05-11T04:26:43.142Z,6.30
2023-05-11T04:29:11.321Z,5.97
2023-05-11T04:31:39.576Z,6.23
2023-05-11T04:34:08.312Z,6.70
2023-05-11T04:36:38.042Z,5.90
2023-05-11T04:39:07.862Z,7.67
2023-05-11T04:41:38.355Z,6.93
2023-05-11T04:44:08.338Z,6.53
2023-05-11T04:46:38.454Z,6.00
2023-05-11T04:49:07.015Z,5.73
2023-05-11T04:51:37.257Z,7.00
2023-05-11T04:54:05.870Z,6.20
2023-05-11T04:56:34.023Z,6.80
2023-05-11T04:59:03.972Z,6.27
2023-05-11T05:01:34.943Z,6.80
2023-05-11T05:04:04.285Z,7.30
2023-05-11T05:06:33.152Z,7.23
2023-05-11T05:09:01.276Z,7.27
2023-05-11T05:11:29.438Z,6.20
2023-05-11T05:13:57.801Z,6.80
2023-05-11T05:16:26.026Z,6.80
2023-05-11T05:18:55.662Z,6.60
2023-05-11T05:21:23.921Z,6.00
2023-05-11T05:23:52.049Z,5.83
2023-05-11T05:26:20.173Z,6.07
2023-05-11T05:28:48.960Z,5.83
2023-05-11T05:31:17.975Z,5.90
2023-05-11T05:33:46.171Z,5.80
2023-05-11T05:36:16.204Z,5.43
2023-05-11T05:38:44.849Z,5.00
2023-05-11T05:41:13.079Z,5.70
2023-05-11T05:43:44.131Z,5.07
2023-05-11T05:46:13.224Z,6.03
2023-05-11T05:48:41.668Z,5.90
2023-05-11T05:51:10.855Z,5.13
2023-05-11T05:53:40.886Z,4.67
2023-05-11T05:56:09.321Z,4.63
2023-05-11T05:58:37.537Z,4.37
2023-05-11T06:01:05.911Z,4.03
2023-05-11T06:03:34.220Z,3.83
2023-05-11T06:06:03.085Z,4.70
2023-05-11T06:08:31.464Z,4.67
2023-05-11T06:11:01.022Z,5.37
2023-05-11T06:13:29.167Z,5.10
2023-05-11T06:15:58.840Z,5.20
2023-05-11T06:18:31.595Z,4.80
2023-05-11T06:21:00.530Z,4.27
2023-05-11T06:23:30.317Z,4.20
2023-05-11T06:25:58.906Z,4.63
2023-05-11T06:28:30.108Z,5.00
2023-05-11T06:31:03.756Z,4.47
2023-05-11T06:33:35.560Z,4.10
2023-05-11T06:36:06.690Z,4.20
2023-05-11T06:38:36.160Z,4.17
2023-05-11T06:41:04.318Z,4.60
2023-05-11T06:43:34.062Z,4.40
2023-05-11T06:46:04.352Z,3.90
2023-05-11T06:48:33.698Z,3.63
2023-05-11T06:51:02.152Z,4.73
2023-05-11T06:53:30.281Z,3.47
2023-05-11T06:55:59.559Z,4.40
2023-05-11T06:58:28.009Z,4.27
2023-05-11T07:00:57.664Z,3.80
2023-05-11T07:03:25.915Z,3.43
2023-05-11T07:05:54.418Z,4.53
2023-05-11T07:08:22.637Z,3.37
2023-05-11T07:10:50.830Z,4.10
2023-05-11T07:13:18.995Z,4.37
2023-05-11T07:15:47.208Z,4.60
2023-05-11T07:18:17.022Z,3.40
2023-05-11T07:20:49.893Z,3.73
2023-05-11T07:23:18.314Z,3.50
2023-05-11T07:25:46.518Z,4.30
2023-05-11T07:28:14.712Z,3.33
2023-05-11T07:30:42.987Z,2.80
2023-05-11T07:33:11.198Z,3.63
2023-05-11T07:35:40.812Z,3.27
2023-05-11T07:38:11.793Z,3.57
2023-05-11T07:40:40.094Z,3.13
2023-05-11T07:43:08.322Z,3.00
2023-05-11T07:45:37.127Z,3.60
2023-05-11T07:48:05.457Z,3.20
2023-05-11T07:50:33.730Z,2.80
2023-05-11T07:53:03.197Z,3.67
2023-05-11T07:55:31.363Z,3.33
2023-05-11T07:57:59.546Z,3.90
2023-05-11T08:00:27.886Z,3.17
2023-05-11T08:02:56.790Z,3.27
2023-05-11T08:05:25.204Z,2.90
2023-05-11T08:07:53.554Z,2.80
2023-05-11T08:10:23.228Z,3.30
2023-05-11T08:12:51.611Z,2.77
2023-05-11T08:15:20.014Z,2.73
2023-05-11T08:17:48.489Z,2.93
2023-05-11T08:20:16.922Z,2.60
2023-05-11T08:22:45.531Z,3.30
2023-05-11T08:25:14.584Z,2.87
2023-05-11T08:27:44.266Z,2.77
2023-05-11T08:30:13.277Z,2.70
2023-05-11T08:35:13.281Z,2.70
2023-05-11T08:37:41.471Z,2.50
2023-05-11T08:40:14.576Z,2.63
2023-05-11T08:42:47.806Z,2.30
2023-05-11T08:45:17.236Z,2.53
2023-05-11T08:47:46.526Z,2.70
2023-05-11T08:50:14.996Z,2.80
2023-05-11T08:52:43.699Z,2.20
2023-05-11T08:55:12.820Z,2.53
2023-05-11T08:57:43.644Z,2.63
2023-05-11T09:00:14.471Z,2.40
2023-05-11T09:02:43.748Z,2.73
2023-05-11T09:05:12.530Z,2.43
2023-05-11T09:07:43.437Z,2.57
2023-05-11T09:10:13.657Z,2.97
2023-05-11T09:12:42.057Z,2.93
2023-05-11T09:15:11.302Z,3.53
2023-05-11T09:17:40.932Z,3.00
2023-05-11T09:20:10.195Z,3.13
2023-05-11T09:22:44.018Z,2.40
2023-05-11T09:25:13.743Z,1.97
2023-05-11T09:27:42.960Z,2.57
2023-05-11T09:32:52.982Z,2.13
2023-05-11T09:35:25.866Z,1.90
2023-05-11T09:38:02.319Z,2.30
2023-05-11T09:40:34.177Z,2.10
2023-05-11T09:43:03.690Z,2.27
2023-05-11T09:45:39.718Z,2.23
2023-05-11T09:48:24.549Z,1.90
2023-05-11T09:51:00.641Z,1.83
2023-05-11T09:53:35.887Z,2.50
2023-05-11T09:56:04.700Z,1.60
2023-05-11T09:58:47.861Z,2.40
2023-05-11T10:01:16.497Z,1.97
2023-05-11T10:04:02.699Z,2.10
2023-05-11T10:06:49.029Z,1.70
2023-05-11T10:09:19.444Z,1.57
2023-05-11T10:11:47.849Z,1.97
2023-05-11T10:14:16.628Z,1.80
2023-05-11T10:16:45.492Z,1.87
2023-05-11T10:19:15.989Z,1.60
2023-05-11T10:21:45.415Z,1.73
2023-05-11T10:24:13.879Z,1.77
2023-05-11T10:26:42.402Z,1.67
2023-05-11T10:29:10.865Z,2.07
2023-05-11T10:31:39.405Z,1.77
2023-05-11T10:34:07.967Z,1.47
2023-05-11T10:36:37.462Z,1.70
2023-05-11T10:39:05.988Z,1.47
2023-05-11T10:41:48.078Z,1.70
2023-05-11T10:44:44.178Z,1.63
2023-05-11T10:47:43.836Z,1.60
2023-05-11T10:50:26.839Z,2.37
2023-05-11T10:53:19.007Z,2.73
2023-05-11T10:56:06.221Z,2.20
2023-05-11T10:58:49.982Z,1.97
2023-05-11T11:01:35.397Z,1.70
2023-05-11T11:04:06.555Z,1.43
2023-05-11T11:06:36.012Z,1.70
2023-05-11T11:09:07.956Z,1.60
2023-05-11T11:11:39.143Z,1.10
2023-05-11T11:14:09.561Z,1.80
2023-05-11T11:16:39.101Z,1.10
2023-05-11T11:19:36.364Z,1.27
2023-05-11T11:22:04.660Z,1.50
2023-05-11T11:24:47.632Z,1.20
2023-05-11T11:27:16.283Z,1.37
2023-05-11T11:30:17.385Z,1.83
2023-05-11T11:32:46.354Z,1.30
2023-05-11T11:35:48.642Z,1.47
2023-05-11T11:38:18.530Z,1.30
2023-05-11T11:40:51.579Z,1.07
2023-05-11T11:43:22.020Z,1.53
2023-05-11T11:45:54.857Z,1.60
2023-05-11T11:48:25.166Z,1.50
2023-05-11T11:51:04.005Z,1.93
2023-05-11T11:54:00.688Z,1.47
2023-05-11T11:56:41.613Z,1.73
2023-05-11T11:59:13.858Z,0.97
2023-05-11T12:01:44.391Z,1.10
2023-05-11T12:04:50.780Z,1.10
2023-05-11T12:07:22.564Z,1.30
2023-05-11T12:09:52.856Z,1.10
2023-05-11T12:12:22.677Z,1.20
2023-05-11T12:14:50.918Z,1.83
2023-05-11T12:17:28.294Z,1.00
2023-05-11T12:20:11.722Z,1.00
2023-05-11T12:22:39.951Z,0.90
2023-05-11T12:25:11.336Z,1.30
2023-05-11T12:27:49.491Z,0.93
2023-05-11T12:30:22.156Z,1.10
2023-05-11T12:32:56.633Z,1.70
2023-05-11T12:35:26.637Z,1.20
2023-05-11T12:37:55.846Z,1.43
2023-05-11T12:40:24.803Z,1.00
2023-05-11T12:42:55.853Z,1.00
2023-05-11T12:45:25.673Z,1.30
2023-05-11T12:47:55.384Z,1.10
2023-05-11T12:50:23.915Z,1.40
2023-05-11T12:52:52.754Z,0.90
2023-05-11T12:55:28.953Z,1.23
2023-05-11T12:58:09.927Z,1.03
2023-05-11T13:00:38.740Z,1.10
2023-05-11T13:03:07.848Z,1.07
2023-05-11T13:05:36.753Z,1.60
2023-05-11T13:08:06.605Z,1.00
2023-05-11T13:10:34.748Z,0.80
2023-05-11T13:13:02.940Z,1.03
2023-05-11T13:15:33.496Z,1.30
2023-05-11T13:18:03.284Z,0.90
2023-05-11T13:20:34.275Z,0.90
2023-05-11T13:23:07.728Z,1.60
2023-05-11T13:25:51.610Z,1.20
2023-05-11T13:28:23.381Z,1.17
2023-05-11T13:30:59.713Z,1.23
2023-05-11T13:33:28.351Z,1.20
2023-05-11T13:35:56.826Z,1.17
2023-05-11T13:38:25.001Z,0.97
2023-05-11T13:40:53.198Z,1.20
2023-05-11T13:43:21.731Z,1.50
2023-05-11T13:45:49.893Z,0.90
2023-05-11T13:48:19.433Z,1.20
2023-05-11T13:50:47.655Z,1.10
2023-05-11T13:53:16.531Z,1.10
2023-05-11T13:55:44.749Z,1.20
2023-05-11T13:58:13.031Z,1.07
2023-05-11T14:00:41.301Z,1.20
2023-05-11T14:03:09.717Z,1.70
2023-05-11T14:05:39.675Z,1.73
2023-05-11T14:08:08.107Z,1.60
2023-05-11T14:10:36.286Z,1.93
2023-05-11T14:13:06.372Z,2.07
2023-05-11T14:15:35.224Z,1.67
2023-05-11T14:18:05.007Z,1.97
2023-05-11T14:20:33.294Z,2.03
2023-05-11T14:23:03.246Z,1.80
2023-05-11T14:25:31.886Z,2.17
2023-05-11T14:28:00.172Z,1.80
2023-05-11T14:30:28.367Z,1.87
2023-05-11T14:32:57.065Z,1.97
2023-05-11T14:35:25.484Z,1.57
2023-05-11T14:37:54.513Z,1.67
2023-05-11T14:40:24.441Z,2.10
2023-05-11T14:42:52.674Z,1.60
2023-05-11T14:45:21.172Z,2.30
2023-05-11T14:47:49.693Z,2.03
2023-05-11T14:50:18.035Z,2.20
2023-05-11T14:52:47.013Z,2.30
2023-05-11T14:55:15.356Z,2.33
2023-05-11T14:57:45.016Z,1.80
2023-05-11T15:00:14.244Z,2.23
2023-05-11T15:02:42.502Z,2.10
2023-05-11T15:05:11.029Z,2.37
2023-05-11T15:07:39.450Z,1.80
2023-05-11T15:10:08.715Z,1.67
2023-05-11T15:12:36.961Z,1.67
2023-05-11T15:15:07.642Z,2.60
2023-05-11T15:17:36.140Z,1.87
2023-05-11T15:20:04.917Z,1.93
2023-05-11T15:22:33.248Z,2.47
2023-05-11T15:25:01.590Z,2.03
2023-05-11T15:27:29.770Z,1.60
2023-05-11T15:29:57.958Z,2.10
2023-05-11T15:32:27.509Z,2.03
2023-05-11T15:34:59.848Z,1.80
2023-05-11T15:37:28.797Z,2.00
2023-05-11T15:39:57.095Z,2.40
2023-05-11T15:42:25.540Z,1.50
2023-05-11T15:44:53.882Z,2.07
2023-05-11T15:47:22.541Z,1.60
2023-05-11T15:49:52.667Z,2.27
2023-05-11T15:52:20.892Z,2.13
2023-05-11T15:54:49.107Z,2.27
2023-05-11T15:57:17.289Z,1.50
2023-05-11T15:59:45.458Z,2.00
2023-05-11T16:02:13.810Z,1.60
2023-05-11T16:04:41.991Z,1.87
2023-05-11T16:07:11.569Z,1.70
2023-05-11T16:09:39.901Z,1.70
2023-05-11T16:12:08.631Z,1.70
2023-05-11T16:14:36.850Z,2.70
2023-05-11T16:17:05.782Z,1.80
2023-05-11T16:19:33.978Z,2.43
2023-05-11T16:22:02.194Z,1.83
2023-05-11T16:24:34.394Z,1.60
2023-05-11T16:27:03.096Z,1.80
2023-05-11T16:29:31.257Z,1.57
2023-05-11T16:31:59.525Z,2.33
2023-05-11T16:34:28.215Z,1.50
2023-05-11T16:36:58.750Z,1.90
2023-05-11T16:39:27.747Z,1.67
2023-05-11T16:41:57.310Z,1.77
2023-05-11T16:44:25.604Z,1.70
2023-05-11T16:46:53.924Z,1.40
2023-05-11T16:49:22.228Z,2.37
2023-05-11T16:51:51.714Z,2.17
2023-05-11T16:54:19.922Z,2.10
2023-05-11T16:56:48.239Z,1.77
2023-05-11T16:59:17.785Z,1.93
2023-05-11T17:01:46.324Z,1.80
2023-05-11T17:04:14.882Z,1.83
2023-05-11T17:06:43.571Z,2.93
2023-05-11T17:09:11.796Z,2.03
2023-05-11T17:11:40.125Z,2.13
2023-05-11T17:14:08.278Z,2.03
2023-05-11T17:16:37.915Z,2.30
2023-05-11T17:19:06.133Z,1.87
2023-05-11T17:21:34.364Z,2.13
2023-05-11T17:24:02.540Z,2.20
2023-05-11T17:26:43.354Z,2.13
2023-05-11T17:29:16.031Z,1.80
2023-05-11T17:31:48.731Z,1.67
2023-05-11T17:34:17.691Z,1.47
2023-05-11T17:36:46.156Z,1.43
2023-05-11T17:39:16.028Z,1.73
2023-05-11T17:41:44.641Z,1.67
2023-05-11T17:44:12.833Z,1.80
2023-05-11T17:46:41.008Z,1.40
2023-05-11T17:49:11.417Z,1.53
2023-05-11T17:51:39.662Z,1.63
2023-05-11T17:54:08.158Z,1.63
2023-05-11T17:56:36.382Z,1.50
2023-05-11T17:59:04.569Z,2.00
2023-05-11T18:01:33.629Z,1.90
2023-05-11T18:04:02.717Z,1.60
2023-05-11T18:06:32.633Z,2.37
2023-05-11T18:09:00.933Z,1.90
2023-05-11T18:11:29.477Z,2.00
2023-05-11T18:13:57.900Z,1.63
2023-05-11T18:16:26.378Z,2.33
2023-05-11T18:18:55.265Z,1.90
2023-05-11T18:21:23.534Z,1.90
2023-05-11T18:23:53.007Z,1.77
2023-05-11T18:26:22.210Z,1.60
2023-05-11T18:28:50.386Z,1.80
2023-05-11T18:31:19.118Z,1.60
2023-05-11T18:33:47.565Z,2.23
2023-05-11T18:36:16.031Z,2.27
2023-05-11T18:38:45.019Z,1.90
2023-05-11T18:41:14.568Z,2.23
2023-05-11T18:43:44.018Z,2.80
2023-05-11T18:46:12.324Z,2.33
2023-05-11T18:48:40.523Z,1.97
2023-05-11T18:51:08.763Z,2.17
2023-05-11T18:53:37.510Z,1.80
2023-05-11T18:56:06.134Z,2.43
2023-05-11T18:58:35.606Z,2.43
2023-05-11T19:01:04.426Z,1.77
2023-05-11T19:03:32.823Z,2.30
2023-05-11T19:06:01.772Z,3.00
2023-05-11T19:08:30.121Z,2.03
2023-05-11T19:10:58.417Z,2.37
2023-05-11T19:13:27.116Z,2.33
2023-05-11T19:15:56.642Z,2.40
2023-05-11T19:18:25.556Z,2.83
2023-05-11T19:20:54.002Z,2.30
2023-05-11T19:23:22.201Z,2.57
2023-05-11T19:25:50.412Z,2.73
2023-05-11T19:28:18.597Z,2.53
2023-05-11T19:30:46.803Z,2.40
2023-05-11T19:33:16.406Z,3.10
2023-05-11T19:35:44.810Z,2.57
2023-05-11T19:38:12.948Z,3.37
2023-05-11T19:40:45.964Z,2.53
2023-05-11T19:43:14.874Z,2.90
2023-05-11T19:45:43.568Z,4.13
2023-05-11T19:48:12.072Z,2.70
2023-05-11T19:50:41.997Z,3.80
2023-05-11T19:53:10.211Z,3.10
2023-05-11T19:55:38.365Z,3.37
2023-05-11T19:58:06.879Z,3.10
2023-05-11T20:00:35.233Z,2.97
2023-05-11T20:03:03.706Z,3.30
2023-05-11T20:05:31.922Z,3.10
2023-05-11T20:08:01.466Z,3.03
2023-05-11T20:10:29.848Z,2.97
2023-05-11T20:12:59.441Z,3.13
2023-05-11T20:15:27.621Z,3.23
2023-05-11T20:17:56.373Z,2.93
2023-05-11T20:20:24.812Z,2.80
2023-05-11T20:22:53.253Z,3.00
2023-05-11T20:25:22.955Z,2.97
2023-05-11T20:27:51.470Z,3.50
2023-05-11T20:30:20.095Z,3.47
2023-05-11T20:35:19.936Z,3.57
2023-05-11T20:37:48.307Z,3.40
2023-05-11T20:40:17.118Z,3.80
2023-05-11T20:42:46.938Z,3.67
2023-05-11T20:45:15.916Z,4.30
2023-05-11T20:47:44.254Z,4.40
2023-05-11T20:50:15.242Z,4.00
2023-05-11T20:52:43.432Z,4.00
2023-05-11T20:55:11.705Z,4.13
2023-05-11T20:57:39.988Z,4.33
2023-05-11T21:00:11.270Z,3.83
2023-05-11T21:02:39.478Z,3.90
2023-05-11T21:05:08.268Z,4.40
2023-05-11T21:07:36.586Z,4.10
2023-05-11T21:10:05.400Z,4.17
2023-05-11T21:12:33.569Z,4.20
2023-05-11T21:15:01.888Z,5.03
2023-05-11T21:17:31.565Z,4.40
2023-05-11T21:19:59.948Z,4.73
2023-05-11T21:22:28.106Z,5.07
2023-05-11T21:24:56.275Z,4.03
2023-05-11T21:27:24.465Z,5.50
2023-05-11T21:29:52.721Z,4.57
2023-05-11T21:32:21.241Z,4.63
2023-05-11T21:34:51.014Z,4.20
2023-05-11T21:37:20.443Z,5.10
2023-05-11T21:39:48.630Z,5.07
2023-05-11T21:42:17.222Z,5.07
2023-05-11T21:44:45.416Z,4.73
2023-05-11T21:47:13.942Z,4.13
2023-05-11T21:49:42.157Z,4.27
2023-05-11T21:52:11.610Z,4.13
2023-05-11T21:54:39.854Z,5.63
2023-05-11T21:57:08.066Z,5.00
2023-05-11T21:59:36.238Z,3.87
2023-05-11T22:02:04.607Z,4.30
2023-05-11T22:04:32.851Z,4.47
2023-05-11T22:07:01.675Z,4.03
2023-05-11T22:09:31.621Z,4.53
2023-05-11T22:11:59.819Z,4.20
2023-05-11T22:14:28.042Z,4.50
2023-05-11T22:16:56.275Z,4.63
2023-05-11T22:19:24.417Z,4.33
2023-05-11T22:21:53.469Z,4.00
2023-05-11T22:24:23.078Z,4.30
2023-05-11T22:26:53.411Z,4.77
2023-05-11T22:29:21.769Z,3.80
2023-05-11T22:31:50.026Z,4.97
2023-05-11T22:34:20.985Z,4.37
2023-05-11T22:36:49.161Z,3.57
2023-05-11T22:39:17.368Z,3.80
2023-05-11T22:41:45.573Z,4.30
2023-05-11T22:44:15.116Z,4.87
2023-05-11T22:46:43.385Z,4.00
2023-05-11T22:49:11.583Z,3.80
2023-05-11T22:51:39.874Z,3.80
2023-05-11T22:54:08.052Z,3.70
2023-05-11T22:56:37.092Z,4.50
2023-05-11T22:59:05.454Z,4.47
2023-05-11T23:01:35.101Z,4.93
2023-05-11T23:04:03.274Z,4.57
2023-05-11T23:06:32.638Z,4.10
2023-05-11T23:09:00.843Z,3.73
2023-05-11T23:11:29.124Z,4.40
2023-05-11T23:13:57.405Z,4.90
2023-05-11T23:16:25.553Z,4.10
2023-05-11T23:18:55.313Z,4.63
2023-05-11T23:21:23.581Z,4.67
2023-05-11T23:23:52.003Z,5.10
2023-05-11T23:26:20.206Z,4.50
2023-05-11T23:28:48.396Z,5.07
2023-05-11T23:31:16.599Z,6.10
2023-05-11T23:33:44.919Z,4.53
2023-05-11T23:36:14.521Z,5.17
2023-05-11T23:38:42.709Z,3.80
2023-05-11T23:41:11.188Z,4.90
2023-05-11T23:43:39.367Z,4.43
2023-05-11T23:46:07.846Z,5.13
2023-05-11T23:48:36.048Z,5.43
2023-05-11T23:51:04.598Z,4.97
2023-05-11T23:53:34.109Z,5.43
2023-05-11T23:56:02.270Z,4.80
2023-05-11T23:58:30.501Z,4.73
